Time;durP1;ratioP1;P1;durP2;ratioP2;P2;SDS_P1;SDS_P2;PMS_P1;PMS_P2;Temp;Humidity;BMP_temperature;BMP_pressure;BME280_temperature;BME280_humidity;BME280_pressure;Samples;Min_cycle;Max_cycle;Signal;HPM_P1;HPM_P2
2022/02/21 00:00:29;;;;;;;;;;;;;;;;;;4995452;28;20053;-42
2022/02/21 00:02:54;;;;;;;;;;;;;;;;;;4997132;28;19918;-43
2022/02/21 00:05:19;;;;;;;;;;;;;;;;;;4994969;28;20672;-43
2022/02/21 00:07:44;;;;;;;;;;;;;;;;;;4997337;28;19921;-44
2022/02/21 00:10:11;;;;;;;;;;;;;;;;;;4998688;28;19921;-45
2022/02/21 00:12:36;;;;;;;;;;;;;;;;;;4997395;28;19920;-41
2022/02/21 00:15:01;;;;;;;;;;;;;;;;;;4996614;28;20242;-40
2022/02/21 00:17:26;;;;;;;;;;;;;;;;;;4998939;28;19917;-43
2022/02/21 00:19:51;;;;;;;;;;;;;;;;;;4998217;28;19921;-41
2022/02/21 00:22:16;;;;;;;;;;;;;;;;;;4996112;28;19939;-42
2022/02/21 00:24:42;;;;;;;;;;;;;;;;;;4998303;28;19924;-41
2022/02/21 00:27:07;;;;;;;;;;;;;;;;;;4997488;28;19960;-42
2022/02/21 00:29:32;;;;;;;;;;;;;;;;;;4997551;28;19914;-43
2022/02/21 00:31:57;;;;;;;;;;;;;;;;;;4995544;28;20332;-42
2022/02/21 00:34:22;;;;;;;;;;;;;;;;;;4994991;28;19996;-44
2022/02/21 00:36:47;;;;;;;;;;;;;;;;;;4996513;28;20353;-44
2022/02/21 00:39:12;;;;;;;;;;;;;;;;;;4998635;28;19925;-44
2022/02/21 00:41:38;;;;;;;;;;;;;;;;;;4997361;28;20280;-42
2022/02/21 00:44:03;;;;;;;;;;;;;;;;;;4999907;28;19924;-42
2022/02/21 00:46:28;;;;;;;;;;;;;;;;;;4995466;28;20258;-42
2022/02/21 00:48:53;;;;;;;;;;;;;;;;;;4990114;28;19922;-41
2022/02/21 00:51:18;;;;;;;;;;;;;;;;;;4995877;28;19917;-43
2022/02/21 00:53:43;;;;;;;;;;;;;;;;;;4995912;28;19913;-43
2022/02/21 00:56:09;;;;;;;;;;;;;;;;;;4995025;28;19918;-43
2022/02/21 00:58:35;;;;;;;;;;;;;;;;;;4996543;28;19920;-44
2022/02/21 01:01:00;;;;;;;;;;;;;;;;;;4996673;28;19932;-42
2022/02/21 01:03:25;;;;;;;;;;;;;;;;;;5011448;28;20025;-41
2022/02/21 01:05:50;;;;;;;;;;;;;;;;;;4993413;28;20401;-41
2022/02/21 01:08:15;;;;;;;;;;;;;;;;;;5010215;28;20040;-42
2022/02/21 01:10:40;;;;;;;;;;;;;;;;;;4995849;28;19913;-43
2022/02/21 01:13:05;;;;;;;;;;;;;;;;;;4994181;28;19952;-44
2022/02/21 01:15:30;;;;;;;;;;;;;;;;;;4995425;28;19925;-43
2022/02/21 01:17:56;;;;;;;;;;;;;;;;;;4992833;28;20668;-43
2022/02/21 01:20:21;;;;;;;;;;;;;;;;;;4996159;28;19921;-41
2022/02/21 01:22:46;;;;;;;;;;;;;;;;;;4994317;28;19929;-45
2022/02/21 01:25:11;;;;;;;;;;;;;;;;;;4996964;28;20393;-44
2022/02/21 01:27:36;;;;;;;;;;;;;;;;;;4991890;28;19918;-43
2022/02/21 01:30:02;;;;;;;;;;;;;;;;;;4993929;28;19909;-46
2022/02/21 01:32:27;;;;;;;;;;;;;;;;;;4994193;28;19917;-44
2022/02/21 01:34:52;;;;;;;;;;;;;;;;;;4993385;28;19924;-41
2022/02/21 01:37:17;;;;;;;;;;;;;;;;;;4991413;28;19914;-42
2022/02/21 01:39:42;;;;;;;;;;;;;;;;;;4994865;28;20763;-46
2022/02/21 01:42:08;;;;;;;;;;;;;;;;;;4994289;28;19983;-46
2022/02/21 01:44:33;;;;;;;;;;;;;;;;;;4994348;28;19953;-42
2022/02/21 01:46:58;;;;;;;;;;;;;;;;;;5010637;28;19917;-43
2022/02/21 01:49:23;;;;;;;;;;;;;;;;;;4995747;28;19948;-42
2022/02/21 01:51:49;;;;;;;;;;;;;;;;;;4996368;28;19924;-47
2022/02/21 01:54:14;;;;;;;;;;;;;;;;;;4991103;28;20344;-45
2022/02/21 01:56:39;;;;;;;;;;;;;;;;;;4992281;28;20589;-45
2022/02/21 01:59:04;;;;;;;;;;;;;;;;;;4996682;28;19913;-45
2022/02/21 02:01:29;;;;;;;;;;;;;;;;;;4996142;28;20395;-43
2022/02/21 02:03:54;;;;;;;;;;;;;;;;;;4997728;28;19920;-44
2022/02/21 02:06:20;;;;;;;;;;;;;;;;;;4994166;28;20293;-47
2022/02/21 02:08:45;;;;;;;;;;;;;;;;;;4991262;28;19914;-44
2022/02/21 02:11:10;;;;;;;;;;;;;;;;;;4994901;28;19913;-44
2022/02/21 02:13:35;;;;;;;;;;;;;;;;;;4995816;28;19960;-43
2022/02/21 02:16:00;;;;;;;;;;;;;;;;;;4993985;28;19987;-42
2022/02/21 02:18:25;;;;;;;;;;;;;;;;;;5009472;28;19949;-42
2022/02/21 02:20:51;;;;;;;;;;;;;;;;;;4993754;28;19917;-45
2022/02/21 02:23:16;;;;;;;;;;;;;;;;;;4996966;28;19940;-42
2022/02/21 02:25:41;;;;;;;;;;;;;;;;;;4994818;28;19913;-44
2022/02/21 02:28:06;;;;;;;;;;;;;;;;;;4991543;28;20365;-44
2022/02/21 02:30:31;;;;;;;;;;;;;;;;;;4997454;28;19913;-44
2022/02/21 02:32:56;;;;;;;;;;;;;;;;;;4995608;28;19917;-43
2022/02/21 02:35:22;;;;;;;;;;;;;;;;;;4992795;28;19917;-43
2022/02/21 02:37:47;;;;;;;;;;;;;;;;;;4991739;28;19944;-45
2022/02/21 02:40:12;;;;;;;;;;;;;;;;;;4991668;28;19914;-42
2022/02/21 02:42:38;;;;;;;;;;;;;;;;;;4994373;28;20012;-45
2022/02/21 02:45:03;;;;;;;;;;;;;;;;;;4994466;28;19914;-43
2022/02/21 02:47:28;;;;;;;;;;;;;;;;;;4996023;28;19945;-43
2022/02/21 02:49:53;;;;;;;;;;;;;;;;;;4993435;28;20379;-46
2022/02/21 02:52:18;;;;;;;;;;;;;;;;;;4992165;28;20089;-44
2022/02/21 02:54:43;;;;;;;;;;;;;;;;;;4996074;28;19917;-43
2022/02/21 02:57:09;;;;;;;;;;;;;;;;;;4992076;28;19914;-44
2022/02/21 02:59:34;;;;;;;;;;;;;;;;;;4994269;28;20281;-45
2022/02/21 03:01:59;;;;;;;;;;;;;;;;;;4993922;28;19921;-47
2022/02/21 03:04:24;;;;;;;;;;;;;;;;;;4994857;28;19913;-44
2022/02/21 03:06:49;;;;;;;;;;;;;;;;;;4993316;28;20318;-43
2022/02/21 03:09:14;;;;;;;;;;;;;;;;;;4994166;28;19914;-46
2022/02/21 03:11:39;;;;;;;;;;;;;;;;;;4991734;28;20361;-45
2022/02/21 03:14:05;;;;;;;;;;;;;;;;;;4995936;28;19984;-45
2022/02/21 03:16:30;;;;;;;;;;;;;;;;;;4996565;28;20419;-46
2022/02/21 03:18:56;;;;;;;;;;;;;;;;;;4993559;28;19914;-44
2022/02/21 03:21:21;;;;;;;;;;;;;;;;;;4995696;28;20413;-42
2022/02/21 03:23:46;;;;;;;;;;;;;;;;;;4995943;28;19924;-42
2022/02/21 03:26:11;;;;;;;;;;;;;;;;;;4993663;28;19914;-45
2022/02/21 03:28:36;;;;;;;;;;;;;;;;;;4994785;28;19925;-45
2022/02/21 03:31:01;;;;;;;;;;;;;;;;;;4998953;28;19913;-42
2022/02/21 03:33:26;;;;;;;;;;;;;;;;;;4995918;28;19957;-44
2022/02/21 03:35:51;;;;;;;;;;;;;;;;;;4995815;28;19928;-44
2022/02/21 03:38:17;;;;;;;;;;;;;;;;;;4994554;28;19917;-46
2022/02/21 03:40:42;;;;;;;;;;;;;;;;;;4997026;28;20349;-43
2022/02/21 03:43:08;;;;;;;;;;;;;;;;;;4997464;28;19984;-42
2022/02/21 03:45:33;;;;;;;;;;;;;;;;;;4997319;28;19913;-42
2022/02/21 03:47:58;;;;;;;;;;;;;;;;;;4997856;28;19914;-45
2022/02/21 03:50:23;;;;;;;;;;;;;;;;;;4998437;28;19932;-44
2022/02/21 03:52:48;;;;;;;;;;;;;;;;;;4997582;28;19918;-44
2022/02/21 03:55:13;;;;;;;;;;;;;;;;;;4998863;28;19988;-44
2022/02/21 03:57:39;;;;;;;;;;;;;;;;;;4995810;28;19914;-48
2022/02/21 04:00:04;;;;;;;;;;;;;;;;;;4998770;28;19924;-45
2022/02/21 04:02:29;;;;;;;;;;;;;;;;;;4997397;28;20356;-44
2022/02/21 04:04:54;;;;;;;;;;;;;;;;;;5000482;28;19959;-43
2022/02/21 04:07:19;;;;;;;;;;;;;;;;;;4998003;28;20329;-42
2022/02/21 04:09:44;;;;;;;;;;;;;;;;;;5014999;28;19914;-42
2022/02/21 04:12:09;;;;;;;;;;;;;;;;;;4995294;28;20030;-46
2022/02/21 04:14:35;;;;;;;;;;;;;;;;;;4996669;28;19918;-49
2022/02/21 04:17:00;;;;;;;;;;;;;;;;;;5011112;28;19914;-44
2022/02/21 04:19:25;;;;;;;;;;;;;;;;;;4998631;28;20017;-44
2022/02/21 04:21:50;;;;;;;;;;;;;;;;;;4996492;28;19918;-44
2022/02/21 04:24:15;;;;;;;;;;;;;;;;;;4995449;28;19913;-45
2022/02/21 04:26:40;;;;;;;;;;;;;;;;;;5000423;28;19940;-46
2022/02/21 04:29:06;;;;;;;;;;;;;;;;;;4994406;28;19977;-47
2022/02/21 04:31:31;;;;;;;;;;;;;;;;;;4996583;28;19998;-45
2022/02/21 04:33:56;;;;;;;;;;;;;;;;;;4997252;28;19917;-47
2022/02/21 04:36:21;;;;;;;;;;;;;;;;;;4996016;28;19948;-47
2022/02/21 04:38:46;;;;;;;;;;;;;;;;;;4997284;28;19918;-45
2022/02/21 04:41:11;;;;;;;;;;;;;;;;;;4996234;28;20459;-42
2022/02/21 04:43:37;;;;;;;;;;;;;;;;;;4993962;28;19917;-48
2022/02/21 04:46:02;;;;;;;;;;;;;;;;;;4995862;28;19972;-47
2022/02/21 04:48:27;;;;;;;;;;;;;;;;;;4995368;28;19940;-40
2022/02/21 04:50:52;;;;;;;;;;;;;;;;;;4997573;28;19930;-42
2022/02/21 04:53:17;;;;;;;;;;;;;;;;;;4996298;28;20622;-47
2022/02/21 04:55:42;;;;;;;;;;;;;;;;;;4998778;28;19961;-45
2022/02/21 04:58:07;;;;;;;;;;;;;;;;;;4996246;28;19917;-44
2022/02/21 05:00:33;;;;;;;;;;;;;;;;;;4997789;28;19918;-43
2022/02/21 05:02:58;;;;;;;;;;;;;;;;;;5010122;28;19920;-43
2022/02/21 05:05:23;;;;;;;;;;;;;;;;;;4998742;28;19914;-45
2022/02/21 05:07:48;;;;;;;;;;;;;;;;;;4995407;28;19921;-42
2022/02/21 05:10:14;;;;;;;;;;;;;;;;;;4997856;28;20222;-44
2022/02/21 05:12:39;;;;;;;;;;;;;;;;;;4993604;28;19913;-42
2022/02/21 05:15:04;;;;;;;;;;;;;;;;;;4995546;28;20376;-46
2022/02/21 05:17:29;;;;;;;;;;;;;;;;;;4993786;28;19924;-44
2022/02/21 05:19:54;;;;;;;;;;;;;;;;;;4996356;28;19925;-46
2022/02/21 05:22:20;;;;;;;;;;;;;;;;;;4995747;28;19917;-41
2022/02/21 05:24:46;;;;;;;;;;;;;;;;;;4996280;28;20004;-46
2022/02/21 05:27:11;;;;;;;;;;;;;;;;;;4992638;28;19964;-44
2022/02/21 05:29:36;;;;;;;;;;;;;;;;;;4996397;28;20020;-41
2022/02/21 05:32:01;;;;;;;;;;;;;;;;;;4994248;28;19913;-45
2022/02/21 05:34:26;;;;;;;;;;;;;;;;;;4997658;28;20285;-42
2022/02/21 05:36:51;;;;;;;;;;;;;;;;;;4995835;28;19961;-42
2022/02/21 05:39:17;;;;;;;;;;;;;;;;;;4994515;28;20341;-42
2022/02/21 05:41:43;;;;;;;;;;;;;;;;;;4995972;28;20432;-44
2022/02/21 05:44:08;;;;;;;;;;;;;;;;;;4994199;28;19921;-47
2022/02/21 05:46:35;;;;;;;;;;;;;;;;;;4995233;28;19914;-43
2022/02/21 05:49:00;;;;;;;;;;;;;;;;;;4995724;28;19921;-45
2022/02/21 05:51:25;;;;;;;;;;;;;;;;;;4995082;28;19913;-45
2022/02/21 05:53:51;;;;;;;;;;;;;;;;;;4991841;28;19957;-46
2022/02/21 05:56:16;;;;;;;;;;;;;;;;;;4994618;28;19928;-43
2022/02/21 05:58:41;;;;;;;;;;;;;;;;;;4995008;28;19960;-48
2022/02/21 06:01:06;;;;;;;;;;;;;;;;;;4997889;28;20371;-44
2022/02/21 06:03:31;;;;;;;;;;;;;;;;;;4994038;28;19937;-45
2022/02/21 06:05:57;;;;;;;;;;;;;;;;;;4994549;28;20441;-45
2022/02/21 06:08:23;;;;;;;;;;;;;;;;;;4992919;28;19914;-44
2022/02/21 06:10:49;;;;;;;;;;;;;;;;;;4995814;28;19968;-49
2022/02/21 06:13:15;;;;;;;;;;;;;;;;;;4992795;28;19933;-44
2022/02/21 06:15:40;;;;;;;;;;;;;;;;;;4996173;28;19921;-44
2022/02/21 06:18:05;;;;;;;;;;;;;;;;;;4996334;28;20329;-45
2022/02/21 06:20:30;;;;;;;;;;;;;;;;;;4991519;28;20344;-47
2022/02/21 06:22:56;;;;;;;;;;;;;;;;;;4994398;28;19925;-44
2022/02/21 06:25:21;;;;;;;;;;;;;;;;;;4994638;28;19921;-47
2022/02/21 06:27:46;;;;;;;;;;;;;;;;;;4993569;28;19914;-45
2022/02/21 06:30:11;;;;;;;;;;;;;;;;;;4995827;28;20402;-42
2022/02/21 06:32:36;;;;;;;;;;;;;;;;;;4991392;28;19925;-45
2022/02/21 06:35:01;;;;;;;;;;;;;;;;;;4993216;28;20287;-42
2022/02/21 06:37:26;;;;;;;;;;;;;;;;;;5004775;28;19941;-42
2022/02/21 06:39:52;;;;;;;;;;;;;;;;;;4996018;28;19914;-42
2022/02/21 06:42:17;;;;;;;;;;;;;;;;;;4997372;28;19932;-43
2022/02/21 06:44:42;;;;;;;;;;;;;;;;;;4996199;28;19918;-43
2022/02/21 06:47:07;;;;;;;;;;;;;;;;;;4996250;28;19963;-44
2022/02/21 06:49:32;;;;;;;;;;;;;;;;;;4996376;28;19925;-43
2022/02/21 06:51:57;;;;;;;;;;;;;;;;;;4998373;28;19980;-43
2022/02/21 06:54:23;;;;;;;;;;;;;;;;;;4999518;28;19917;-43
2022/02/21 06:56:48;;;;;;;;;;;;;;;;;;4996388;28;19914;-42
2022/02/21 06:59:13;;;;;;;;;;;;;;;;;;4994803;28;20332;-43
2022/02/21 07:01:38;;;;;;;;;;;;;;;;;;4994825;28;20032;-43
2022/02/21 07:04:03;;;;;;;;;;;;;;;;;;5000225;28;19920;-44
2022/02/21 07:06:28;;;;;;;;;;;;;;;;;;4997293;28;19914;-42
2022/02/21 07:08:54;;;;;;;;;;;;;;;;;;4996031;28;19992;-45
2022/02/21 07:11:19;;;;;;;;;;;;;;;;;;4998076;28;20380;-44
2022/02/21 07:13:44;;;;;;;;;;;;;;;;;;4997204;28;20273;-45
2022/02/21 07:16:09;;;;;;;;;;;;;;;;;;4998077;28;19917;-41
2022/02/21 07:18:37;;;;;;;;;;;;;;;;;;4994280;28;19914;-42
2022/02/21 07:21:02;;;;;;;;;;;;;;;;;;4994581;28;20392;-44
2022/02/21 07:23:27;;;;;;;;;;;;;;;;;;4996990;28;19918;-46
2022/02/21 07:25:52;;;;;;;;;;;;;;;;;;4996158;28;20461;-45
2022/02/21 07:28:17;;;;;;;;;;;;;;;;;;4997157;28;20664;-43
2022/02/21 07:30:43;;;;;;;;;;;;;;;;;;4999250;28;20024;-47
2022/02/21 07:33:08;;;;;;;;;;;;;;;;;;4997410;28;19914;-43
2022/02/21 07:35:33;;;;;;;;;;;;;;;;;;4996310;28;19979;-45
2022/02/21 07:37:58;;;;;;;;;;;;;;;;;;4997899;28;19913;-44
2022/02/21 07:40:23;;;;;;;;;;;;;;;;;;4997792;28;19920;-44
2022/02/21 07:42:49;;;;;;;;;;;;;;;;;;4996654;28;19929;-47
2022/02/21 07:45:14;;;;;;;;;;;;;;;;;;4997288;28;20304;-45
2022/02/21 07:47:39;;;;;;;;;;;;;;;;;;4997870;28;19914;-45
2022/02/21 07:50:07;;;;;;;;;;;;;;;;;;4996464;28;20447;-48
2022/02/21 07:52:32;;;;;;;;;;;;;;;;;;4997198;28;19963;-42
2022/02/21 07:54:57;;;;;;;;;;;;;;;;;;4999423;28;20020;-42
2022/02/21 07:57:22;;;;;;;;;;;;;;;;;;5000710;28;20503;-43
2022/02/21 07:59:48;;;;;;;;;;;;;;;;;;5001972;28;19921;-41
2022/02/21 08:02:13;;;;;;;;;;;;;;;;;;4999906;28;19914;-45
2022/02/21 08:04:38;;;;;;;;;;;;;;;;;;4999006;28;19914;-43
2022/02/21 08:07:03;;;;;;;;;;;;;;;;;;4998707;28;19918;-43
2022/02/21 08:09:28;;;;;;;;;;;;;;;;;;4999327;28;19918;-46
2022/02/21 08:11:54;;;;;;;;;;;;;;;;;;4997003;28;20289;-42
2022/02/21 08:14:19;;;;;;;;;;;;;;;;;;4996273;28;20641;-41
2022/02/21 08:16:44;;;;;;;;;;;;;;;;;;4995698;28;19956;-46
2022/02/21 08:19:10;;;;;;;;;;;;;;;;;;4995528;28;20407;-42
2022/02/21 08:21:35;;;;;;;;;;;;;;;;;;4996730;28;19913;-43
2022/02/21 08:24:00;;;;;;;;;;;;;;;;;;4995010;28;19921;-41
2022/02/21 08:26:26;;;;;;;;;;;;;;;;;;4995538;28;19913;-43
2022/02/21 08:28:51;;;;;;;;;;;;;;;;;;4998071;28;19920;-44
2022/02/21 08:31:16;;;;;;;;;;;;;;;;;;4995960;28;20389;-43
2022/02/21 08:33:41;;;;;;;;;;;;;;;;;;4997000;28;20000;-43
2022/02/21 08:36:06;;;;;;;;;;;;;;;;;;4993295;28;19917;-43
2022/02/21 08:38:31;;;;;;;;;;;;;;;;;;4996609;28;19921;-44
2022/02/21 08:40:57;;;;;;;;;;;;;;;;;;4997629;28;19917;-43
2022/02/21 08:43:25;;;;;;;;;;;;;;;;;;4997993;28;19921;-46
2022/02/21 08:45:50;;;;;;;;;;;;;;;;;;4997134;28;20008;-43
2022/02/21 08:48:16;;;;;;;;;;;;;;;;;;4996038;28;20001;-44
2022/02/21 08:50:41;;;;;;;;;;;;;;;;;;4995759;28;19926;-48
2022/02/21 08:53:06;;;;;;;;;;;;;;;;;;5000414;28;20361;-44
2022/02/21 08:55:31;;;;;;;;;;;;;;;;;;5001564;28;19956;-46
2022/02/21 08:57:56;;;;;;;;;;;;;;;;;;4998312;28;20333;-45
2022/02/21 09:00:21;;;;;;;;;;;;;;;;;;4998570;28;19952;-52
2022/02/21 09:02:46;;;;;;;;;;;;;;;;;;4996225;28;19925;-44
2022/02/21 09:05:12;;;;;;;;;;;;;;;;;;4999394;28;20448;-45
2022/02/21 09:07:37;;;;;;;;;;;;;;;;;;4996441;28;20288;-45
2022/02/21 09:10:02;;;;;;;;;;;;;;;;;;4996734;28;19917;-46
2022/02/21 09:12:28;;;;;;;;;;;;;;;;;;4997736;28;19914;-45
2022/02/21 09:14:56;;;;;;;;;;;;;;;;;;4996123;28;19917;-47
2022/02/21 09:17:21;;;;;;;;;;;;;;;;;;4995412;28;19924;-46
2022/02/21 09:19:46;;;;;;;;;;;;;;;;;;4996126;28;19914;-47
2022/02/21 09:22:12;;;;;;;;;;;;;;;;;;4996247;28;20397;-44
2022/02/21 09:24:37;;;;;;;;;;;;;;;;;;4995074;28;20778;-48
2022/02/21 09:27:02;;;;;;;;;;;;;;;;;;4996692;28;19914;-49
2022/02/21 09:29:27;;;;;;;;;;;;;;;;;;4994852;28;20509;-47
2022/02/21 09:31:55;;;;;;;;;;;;;;;;;;4995278;28;19913;-45
2022/02/21 09:34:20;;;;;;;;;;;;;;;;;;4994547;28;20463;-47
2022/02/21 09:36:45;;;;;;;;;;;;;;;;;;4999735;28;19926;-49
2022/02/21 09:39:10;;;;;;;;;;;;;;;;;;4995760;28;19940;-48
2022/02/21 09:41:35;;;;;;;;;;;;;;;;;;4995780;28;19914;-49
2022/02/21 09:44:01;;;;;;;;;;;;;;;;;;4990636;28;20308;-46
2022/02/21 09:46:26;;;;;;;;;;;;;;;;;;4996884;28;19953;-48
2022/02/21 09:48:51;;;;;;;;;;;;;;;;;;4996570;28;19928;-51
2022/02/21 09:51:16;;;;;;;;;;;;;;;;;;4995431;28;20281;-47
2022/02/21 09:53:41;;;;;;;;;;;;;;;;;;5011669;28;20001;-50
2022/02/21 09:56:06;;;;;;;;;;;;;;;;;;4997635;28;19928;-45
2022/02/21 09:58:32;;;;;;;;;;;;;;;;;;4995067;28;20313;-49
2022/02/21 10:00:57;;;;;;;;;;;;;;;;;;4996417;28;19975;-45
2022/02/21 10:03:23;;;;;;;;;;;;;;;;;;4993698;28;19920;-49
2022/02/21 10:05:50;;;;;;;;;;;;;;;;;;4993490;28;20258;-47
2022/02/21 10:08:15;;;;;;;;;;;;;;;;;;4997886;28;19913;-46
2022/02/21 10:10:40;;;;;;;;;;;;;;;;;;4997796;28;20452;-44
2022/02/21 10:13:05;;;;;;;;;;;;;;;;;;4996640;28;19914;-42
2022/02/21 10:15:30;;;;;;;;;;;;;;;;;;4995504;28;19925;-44
2022/02/21 10:17:56;;;;;;;;;;;;;;;;;;4991929;28;20385;-42
2022/02/21 10:20:21;;;;;;;;;;;;;;;;;;4994364;28;19917;-45
2022/02/21 10:22:46;;;;;;;;;;;;;;;;;;4992784;28;20388;-45
2022/02/21 10:25:11;;;;;;;;;;;;;;;;;;4994999;28;19913;-49
2022/02/21 10:27:36;;;;;;;;;;;;;;;;;;4995801;28;19961;-45
2022/02/21 10:30:01;;;;;;;;;;;;;;;;;;4995598;28;20270;-44
2022/02/21 10:32:27;;;;;;;;;;;;;;;;;;4997803;28;19913;-46
2022/02/21 10:34:52;;;;;;;;;;;;;;;;;;4996837;28;19924;-44
2022/02/21 10:37:17;;;;;;;;;;;;;;;;;;4994679;28;19922;-44
2022/02/21 10:39:42;;;;;;;;;;;;;;;;;;4995070;28;19967;-48
2022/02/21 10:42:08;;;;;;;;;;;;;;;;;;4990799;28;19968;-44
2022/02/21 10:44:35;;;;;;;;;;;;;;;;;;4994023;28;19913;-47
2022/02/21 10:47:00;;;;;;;;;;;;;;;;;;4992055;28;19921;-46
2022/02/21 10:49:25;;;;;;;;;;;;;;;;;;4992908;28;19925;-45
2022/02/21 10:51:51;;;;;;;;;;;;;;;;;;4995463;28;20564;-46
2022/02/21 10:54:16;;;;;;;;;;;;;;;;;;4994153;28;19917;-42
2022/02/21 10:56:41;;;;;;;;;;;;;;;;;;4997560;28;20379;-46
2022/02/21 10:59:06;;;;;;;;;;;;;;;;;;4994498;28;19913;-45
2022/02/21 11:01:31;;;;;;;;;;;;;;;;;;4997917;28;20381;-45
2022/02/21 11:03:56;;;;;;;;;;;;;;;;;;4995319;28;19921;-46
2022/02/21 11:06:21;;;;;;;;;;;;;;;;;;4995312;28;19914;-48
2022/02/21 11:08:47;;;;;;;;;;;;;;;;;;4992457;28;20388;-46
2022/02/21 11:11:12;;;;;;;;;;;;;;;;;;4993474;28;19913;-44
2022/02/21 11:13:38;;;;;;;;;;;;;;;;;;4994906;28;19972;-44
2022/02/21 11:16:03;;;;;;;;;;;;;;;;;;4995387;28;20027;-46
2022/02/21 11:18:28;;;;;;;;;;;;;;;;;;4992945;28;20336;-47
2022/02/21 11:20:53;;;;;;;;;;;;;;;;;;4995945;28;19913;-47
2022/02/21 11:23:18;;;;;;;;;;;;;;;;;;4995679;28;20016;-46
2022/02/21 11:25:43;;;;;;;;;;;;;;;;;;4995255;28;19925;-46
2022/02/21 11:28:08;;;;;;;;;;;;;;;;;;4990592;28;19920;-43
2022/02/21 11:30:34;;;;;;;;;;;;;;;;;;4993848;28;19949;-43
2022/02/21 11:32:59;;;;;;;;;;;;;;;;;;4994306;28;19914;-48
2022/02/21 11:35:25;;;;;;;;;;;;;;;;;;4992549;28;20365;-48
2022/02/21 11:37:50;;;;;;;;;;;;;;;;;;4995665;28;19993;-49
2022/02/21 11:40:15;;;;;;;;;;;;;;;;;;4993687;28;19913;-47
2022/02/21 11:42:40;;;;;;;;;;;;;;;;;;4991817;28;20364;-49
2022/02/21 11:45:05;;;;;;;;;;;;;;;;;;4992173;28;19960;-48
2022/02/21 11:47:31;;;;;;;;;;;;;;;;;;4993934;28;19913;-46
2022/02/21 11:49:56;;;;;;;;;;;;;;;;;;5000166;28;19971;-49
2022/02/21 11:52:21;;;;;;;;;;;;;;;;;;4994888;28;19921;-45
2022/02/21 11:54:47;;;;;;;;;;;;;;;;;;4995592;28;19924;-50
2022/02/21 11:57:12;;;;;;;;;;;;;;;;;;4995692;28;19967;-50
2022/02/21 11:59:37;;;;;;;;;;;;;;;;;;4994711;28;19994;-48
2022/02/21 12:02:02;;;;;;;;;;;;;;;;;;4994895;28;20036;-47
2022/02/21 12:04:28;;;;;;;;;;;;;;;;;;4997751;28;19924;-44
2022/02/21 12:06:53;;;;;;;;;;;;;;;;;;4996723;28;19961;-46
2022/02/21 12:09:18;;;;;;;;;;;;;;;;;;4997370;28;19913;-44
2022/02/21 12:11:43;;;;;;;;;;;;;;;;;;4994694;28;20368;-49
2022/02/21 12:14:08;;;;;;;;;;;;;;;;;;4998624;28;20852;-52
2022/02/21 12:16:33;;;;;;;;;;;;;;;;;;4998158;28;19960;-47
2022/02/21 12:19:01;;;;;;;;;;;;;;;;;;4998502;28;20362;-45
2022/02/21 12:21:28;;;;;;;;;;;;;;;;;;5001804;28;19917;-49
2022/02/21 12:24:02;;;;;;;;;;;;;;;;;;5001299;28;19918;-49
2022/02/21 12:26:28;;;;;;;;;;;;;;;;;;5003470;28;20055;-47
2022/02/21 12:28:53;;;;;;;;;;;;;;;;;;5000961;28;20048;-49
2022/02/21 12:31:18;;;;;;;;;;;;;;;;;;4997820;28;19960;-47
2022/02/21 12:33:43;;;;;;;;;;;;;;;;;;4999201;28;20381;-51
2022/02/21 12:36:08;;;;;;;;;;;;;;;;;;4998116;28;19948;-51
2022/02/21 12:38:33;;;;;;;;;;;;;;;;;;4994945;28;19939;-50
2022/02/21 12:41:12;;;;;;;;;;;;;;;;;;4997653;28;19913;-50
2022/02/21 12:43:37;;;;;;;;;;;;;;;;;;4998116;28;19955;-52
2022/02/21 12:46:02;;;;;;;;;;;;;;;;;;5001474;28;20745;-52
2022/02/21 12:48:27;;;;;;;;;;;;;;;;;;4998075;28;19922;-54
2022/02/21 12:50:52;;;;;;;;;;;;;;;;;;4999637;28;19932;-50
2022/02/21 12:53:17;;;;;;;;;;;;;;;;;;4997239;28;20416;-51
2022/02/21 12:55:43;;;;;;;;;;;;;;;;;;4998833;28;19918;-49
2022/02/21 12:58:08;;;;;;;;;;;;;;;;;;4998013;28;19917;-53
2022/02/21 13:00:33;;;;;;;;;;;;;;;;;;4997642;28;19913;-50
2022/02/21 13:02:59;;;;;;;;;;;;;;;;;;4997935;28;19983;-53
2022/02/21 13:05:24;;;;;;;;;;;;;;;;;;5000959;28;19913;-48
2022/02/21 13:07:50;;;;;;;;;;;;;;;;;;5001935;28;19916;-53
2022/02/21 13:10:15;;;;;;;;;;;;;;;;;;4999336;28;19922;-51
2022/02/21 13:12:40;;;;;;;;;;;;;;;;;;4996148;28;20341;-52
2022/02/21 13:15:05;;;;;;;;;;;;;;;;;;4997821;28;19984;-53
2022/02/21 13:17:32;;;;;;;;;;;;;;;;;;5000395;28;19918;-49
2022/02/21 13:19:57;;;;;;;;;;;;;;;;;;4996352;28;19910;-50
2022/02/21 13:22:23;;;;;;;;;;;;;;;;;;4998572;28;19937;-51
2022/02/21 13:24:48;;;;;;;;;;;;;;;;;;4999398;28;19918;-52
2022/02/21 13:27:13;;;;;;;;;;;;;;;;;;4998254;28;19945;-53
2022/02/21 13:29:38;;;;;;;;;;;;;;;;;;4997242;28;20461;-53
2022/02/21 13:32:03;;;;;;;;;;;;;;;;;;4996902;28;19959;-54
2022/02/21 13:34:28;;;;;;;;;;;;;;;;;;5015178;28;19910;-51
2022/02/21 13:36:53;;;;;;;;;;;;;;;;;;4997114;28;19981;-50
2022/02/21 13:39:19;;;;;;;;;;;;;;;;;;4994744;28;20400;-50
2022/02/21 13:41:44;;;;;;;;;;;;;;;;;;4996966;28;19989;-53
2022/02/21 13:44:10;;;;;;;;;;;;;;;;;;4999279;28;19980;-53
2022/02/21 13:46:35;;;;;;;;;;;;;;;;;;4998241;28;19963;-53
2022/02/21 13:49:00;;;;;;;;;;;;;;;;;;4996681;28;19933;-52
2022/02/21 13:51:26;;;;;;;;;;;;;;;;;;4996711;28;20288;-53
2022/02/21 13:53:51;;;;;;;;;;;;;;;;;;4994911;28;19921;-49
2022/02/21 13:56:17;;;;;;;;;;;;;;;;;;4996184;28;19914;-51
2022/02/21 13:58:42;;;;;;;;;;;;;;;;;;4998269;28;19937;-53
2022/02/21 14:01:09;;;;;;;;;;;;;;;;;;4996921;28;20214;-50
2022/02/21 14:03:34;;;;;;;;;;;;;;;;;;4997286;28;19993;-49
2022/02/21 14:05:59;;;;;;;;;;;;;;;;;;4998295;28;20316;-49
2022/02/21 14:08:24;;;;;;;;;;;;;;;;;;4995861;28;19913;-53
2022/02/21 14:10:51;;;;;;;;;;;;;;;;;;4997939;28;19932;-49
2022/02/21 14:13:16;;;;;;;;;;;;;;;;;;4998901;28;19918;-51
2022/02/21 14:15:41;;;;;;;;;;;;;;;;;;4994250;28;19913;-49
2022/02/21 14:18:06;;;;;;;;;;;;;;;;;;5000118;28;19918;-49
2022/02/21 14:20:32;;;;;;;;;;;;;;;;;;4998356;28;19964;-51
2022/02/21 14:22:57;;;;;;;;;;;;;;;;;;5000144;28;20191;-49
2022/02/21 14:25:23;;;;;;;;;;;;;;;;;;4997873;28;19913;-49
2022/02/21 14:27:49;;;;;;;;;;;;;;;;;;5001402;28;19918;-49
2022/02/21 14:30:14;;;;;;;;;;;;;;;;;;4997773;28;19917;-47
2022/02/21 14:32:39;;;;;;;;;;;;;;;;;;5013226;28;19913;-51
2022/02/21 14:35:04;;;;;;;;;;;;;;;;;;4996632;28;19962;-51
2022/02/21 14:37:29;;;;;;;;;;;;;;;;;;4996283;28;20342;-51
2022/02/21 14:39:54;;;;;;;;;;;;;;;;;;4996779;28;20009;-53
2022/02/21 14:42:20;;;;;;;;;;;;;;;;;;5001244;28;19914;-51
2022/02/21 14:44:45;;;;;;;;;;;;;;;;;;4999350;28;20341;-53
2022/02/21 14:47:10;;;;;;;;;;;;;;;;;;4994244;28;19921;-51
2022/02/21 14:49:38;;;;;;;;;;;;;;;;;;4992744;28;20424;-52
2022/02/21 14:52:03;;;;;;;;;;;;;;;;;;4994733;28;19914;-50
2022/02/21 14:54:28;;;;;;;;;;;;;;;;;;4995004;28;19967;-54
2022/02/21 14:56:53;;;;;;;;;;;;;;;;;;4996632;28;20009;-52
2022/02/21 14:59:18;;;;;;;;;;;;;;;;;;4995168;28;20461;-53
2022/02/21 15:01:44;;;;;;;;;;;;;;;;;;4995446;28;20288;-52
2022/02/21 15:04:11;;;;;;;;;;;;;;;;;;4999095;28;20206;-54
2022/02/21 15:06:38;;;;;;;;;;;;;;;;;;4994782;28;20320;-50
2022/02/21 15:09:04;;;;;;;;;;;;;;;;;;4996712;28;19914;-53
2022/02/21 15:11:29;;;;;;;;;;;;;;;;;;4998970;28;19957;-54
2022/02/21 15:13:55;;;;;;;;;;;;;;;;;;4996923;28;20008;-54
2022/02/21 15:16:21;;;;;;;;;;;;;;;;;;4997681;28;19925;-52
2022/02/21 15:18:46;;;;;;;;;;;;;;;;;;4998703;28;20474;-52
2022/02/21 15:21:11;;;;;;;;;;;;;;;;;;4998717;28;19953;-52
2022/02/21 15:23:36;;;;;;;;;;;;;;;;;;4998723;28;19968;-52
2022/02/21 15:26:01;;;;;;;;;;;;;;;;;;4996443;28;19910;-53
2022/02/21 15:28:26;;;;;;;;;;;;;;;;;;4999519;28;20266;-50
2022/02/21 15:30:52;;;;;;;;;;;;;;;;;;4999840;28;20364;-53
2022/02/21 15:33:17;;;;;;;;;;;;;;;;;;5000085;28;19916;-53
2022/02/21 15:35:42;;;;;;;;;;;;;;;;;;5016691;28;19922;-53
2022/02/21 15:38:07;;;;;;;;;;;;;;;;;;4998601;28;19920;-51
2022/02/21 15:40:32;;;;;;;;;;;;;;;;;;4999240;28;20032;-51
2022/02/21 15:42:57;;;;;;;;;;;;;;;;;;5000574;28;19936;-54
2022/02/21 15:45:23;;;;;;;;;;;;;;;;;;5001415;28;20399;-50
2022/02/21 15:47:48;;;;;;;;;;;;;;;;;;4998181;28;20561;-53
2022/02/21 15:50:13;;;;;;;;;;;;;;;;;;5001111;28;19967;-53
2022/02/21 15:52:39;;;;;;;;;;;;;;;;;;5003191;28;19917;-52
2022/02/21 15:55:04;;;;;;;;;;;;;;;;;;4998918;28;19921;-54
2022/02/21 15:57:29;;;;;;;;;;;;;;;;;;4997401;28;20376;-52
2022/02/21 15:59:54;;;;;;;;;;;;;;;;;;4997588;28;19920;-52
2022/02/21 16:02:19;;;;;;;;;;;;;;;;;;4998316;28;20549;-50
2022/02/21 16:04:45;;;;;;;;;;;;;;;;;;5002263;28;19913;-46
2022/02/21 16:07:10;;;;;;;;;;;;;;;;;;5001564;28;19921;-49
2022/02/21 16:09:35;;;;;;;;;;;;;;;;;;4998779;28;19921;-49
2022/02/21 16:12:00;;;;;;;;;;;;;;;;;;4995931;28;20365;-51
2022/02/21 16:14:25;;;;;;;;;;;;;;;;;;4998398;28;19913;-48
2022/02/21 16:16:50;;;;;;;;;;;;;;;;;;4999349;28;20345;-53
2022/02/21 16:19:16;;;;;;;;;;;;;;;;;;4999301;28;20357;-51
2022/02/21 16:21:41;;;;;;;;;;;;;;;;;;4999613;28;20048;-51
2022/02/21 16:24:06;;;;;;;;;;;;;;;;;;4999634;28;20058;-49
2022/02/21 16:26:31;;;;;;;;;;;;;;;;;;4998208;28;20391;-51
2022/02/21 16:28:56;;;;;;;;;;;;;;;;;;4999490;28;19968;-51
2022/02/21 16:31:22;;;;;;;;;;;;;;;;;;4999488;28;20364;-49